sensor_id;sensor_type;location;lat;lon;timestamp;temperature;humidity
24232;DHT22;12364;47.810;8.810;2023-03-14T04:47:07;12.50;97.70
24232;DHT22;12364;47.810;8.810;2023-03-14T04:49:34;12.70;97.10
24232;DHT22;12364;47.810;8.810;2023-03-14T04:52:01;12.50;97.60
24232;DHT22;12364;47.810;8.810;2023-03-14T04:54:28;12.50;98.20
24232;DHT22;12364;47.810;8.810;2023-03-14T04:56:55;12.60;97.90
24232;DHT22;12364;47.810;8.810;2023-03-14T04:59:22;12.60;97.70
24232;DHT22;12364;47.810;8.810;2023-03-14T05:01:49;12.60;97.60
24232;DHT22;12364;47.810;8.810;2023-03-14T05:04:16;12.60;98.50
24232;DHT22;12364;47.810;8.810;2023-03-14T05:06:43;12.80;98.70
24232;DHT22;12364;47.810;8.810;2023-03-14T05:09:11;12.70;97.60
24232;DHT22;12364;47.810;8.810;2023-03-14T05:11:37;12.60;97.90
24232;DHT22;12364;47.810;8.810;2023-03-14T05:14:04;12.70;97.60
24232;DHT22;12364;47.810;8.810;2023-03-14T05:16:31;12.60;97.90
24232;DHT22;12364;47.810;8.810;2023-03-14T05:18:58;12.60;97.40
24232;DHT22;12364;47.810;8.810;2023-03-14T05:21:26;12.60;97.30
24232;DHT22;12364;47.810;8.810;2023-03-14T05:23:53;12.40;97.00
24232;DHT22;12364;47.810;8.810;2023-03-14T05:26:20;12.40;97.10
24232;DHT22;12364;47.810;8.810;2023-03-14T05:28:47;12.30;97.10
24232;DHT22;12364;47.810;8.810;2023-03-14T05:31:14;12.00;97.10
24232;DHT22;12364;47.810;8.810;2023-03-14T05:33:41;12.00;97.60
24232;DHT22;12364;47.810;8.810;2023-03-14T05:36:09;12.00;97.40
24232;DHT22;12364;47.810;8.810;2023-03-14T05:38:36;12.00;97.20
24232;DHT22;12364;47.810;8.810;2023-03-14T05:41:03;11.90;97.30
24232;DHT22;12364;47.810;8.810;2023-03-14T05:43:30;12.00;97.20
24232;DHT22;12364;47.810;8.810;2023-03-14T05:45:57;12.00;97.10
24232;DHT22;12364;47.810;8.810;2023-03-14T05:48:24;12.00;97.10
24232;DHT22;12364;47.810;8.810;2023-03-14T05:50:56;12.10;97.80
24232;DHT22;12364;47.810;8.810;2023-03-14T05:53:24;12.20;98.00
24232;DHT22;12364;47.810;8.810;2023-03-14T05:55:54;12.30;97.70
24232;DHT22;12364;47.810;8.810;2023-03-14T05:58:24;12.30;97.20
24232;DHT22;12364;47.810;8.810;2023-03-14T06:00:51;12.30;96.90
24232;DHT22;12364;47.810;8.810;2023-03-14T06:03:18;12.30;97.10
24232;DHT22;12364;47.810;8.810;2023-03-14T06:05:45;12.20;96.80
24232;DHT22;12364;47.810;8.810;2023-03-14T06:08:12;12.20;96.50
24232;DHT22;12364;47.810;8.810;2023-03-14T06:10:39;12.10;97.00
24232;DHT22;12364;47.810;8.810;2023-03-14T06:13:06;12.10;96.70
24232;DHT22;12364;47.810;8.810;2023-03-14T06:15:33;12.10;96.30
24232;DHT22;12364;47.810;8.810;2023-03-14T06:18:00;12.00;96.40
24232;DHT22;12364;47.810;8.810;2023-03-14T06:20:27;11.90;96.50
24232;DHT22;12364;47.810;8.810;2023-03-14T06:22:54;12.10;97.00
24232;DHT22;12364;47.810;8.810;2023-03-14T06:25:21;11.90;96.30
24232;DHT22;12364;47.810;8.810;2023-03-14T06:27:48;11.50;96.40
24232;DHT22;12364;47.810;8.810;2023-03-14T06:30:15;11.50;97.30
24232;DHT22;12364;47.810;8.810;2023-03-14T06:32:42;11.50;96.90
24232;DHT22;12364;47.810;8.810;2023-03-14T06:35:09;11.50;96.80
24232;DHT22;12364;47.810;8.810;2023-03-14T06:37:36;11.60;97.30
24232;DHT22;12364;47.810;8.810;2023-03-14T06:40:03;11.70;96.90
24232;DHT22;12364;47.810;8.810;2023-03-14T06:42:31;11.80;97.40
24232;DHT22;12364;47.810;8.810;2023-03-14T06:44:58;11.90;96.50
24232;DHT22;12364;47.810;8.810;2023-03-14T06:47:25;11.90;96.80
24232;DHT22;12364;47.810;8.810;2023-03-14T06:49:52;12.00;96.60
24232;DHT22;12364;47.810;8.810;2023-03-14T06:52:19;12.00;96.60
24232;DHT22;12364;47.810;8.810;2023-03-14T06:54:46;12.00;97.00
24232;DHT22;12364;47.810;8.810;2023-03-14T06:57:13;12.00;96.80
24232;DHT22;12364;47.810;8.810;2023-03-14T06:59:40;12.00;96.90
24232;DHT22;12364;47.810;8.810;2023-03-14T07:02:10;12.10;97.10
24232;DHT22;12364;47.810;8.810;2023-03-14T07:04:38;12.10;97.30
24232;DHT22;12364;47.810;8.810;2023-03-14T07:07:05;12.10;96.90
24232;DHT22;12364;47.810;8.810;2023-03-14T07:09:32;12.20;97.20
24232;DHT22;12364;47.810;8.810;2023-03-14T07:11:59;12.20;96.90
24232;DHT22;12364;47.810;8.810;2023-03-14T07:14:27;12.20;97.10
24232;DHT22;12364;47.810;8.810;2023-03-14T07:16:53;12.40;97.10
24232;DHT22;12364;47.810;8.810;2023-03-14T07:19:20;12.40;97.30
24232;DHT22;12364;47.810;8.810;2023-03-14T07:21:47;12.20;97.50
24232;DHT22;12364;47.810;8.810;2023-03-14T07:24:14;12.10;97.30
24232;DHT22;12364;47.810;8.810;2023-03-14T07:26:41;12.10;97.40
24232;DHT22;12364;47.810;8.810;2023-03-14T07:29:08;12.00;96.80
24232;DHT22;12364;47.810;8.810;2023-03-14T07:31:35;12.10;97.70
24232;DHT22;12364;47.810;8.810;2023-03-14T07:34:02;12.10;97.30
24232;DHT22;12364;47.810;8.810;2023-03-14T07:36:29;12.10;97.30
24232;DHT22;12364;47.810;8.810;2023-03-14T07:38:56;12.30;97.30
24232;DHT22;12364;47.810;8.810;2023-03-14T07:41:23;12.20;97.60
24232;DHT22;12364;47.810;8.810;2023-03-14T07:43:50;12.30;97.50
24232;DHT22;12364;47.810;8.810;2023-03-14T07:46:17;12.30;97.10
24232;DHT22;12364;47.810;8.810;2023-03-14T07:48:44;12.30;97.30
24232;DHT22;12364;47.810;8.810;2023-03-14T07:51:11;12.30;97.70
24232;DHT22;12364;47.810;8.810;2023-03-14T07:53:38;12.40;97.30
24232;DHT22;12364;47.810;8.810;2023-03-14T07:56:06;12.00;97.00
24232;DHT22;12364;47.810;8.810;2023-03-14T07:58:33;12.00;97.50
24232;DHT22;12364;47.810;8.810;2023-03-14T08:01:00;12.00;97.10
24232;DHT22;12364;47.810;8.810;2023-03-14T08:03:27;12.10;97.10
24232;DHT22;12364;47.810;8.810;2023-03-14T08:05:54;12.10;97.30
24232;DHT22;12364;47.810;8.810;2023-03-14T08:08:20;12.10;97.30
24232;DHT22;12364;47.810;8.810;2023-03-14T08:10:47;12.20;97.20
24232;DHT22;12364;47.810;8.810;2023-03-14T08:13:14;12.20;97.40
24232;DHT22;12364;47.810;8.810;2023-03-14T08:15:41;12.20;97.20
24232;DHT22;12364;47.810;8.810;2023-03-14T08:18:08;12.20;97.30
24232;DHT22;12364;47.810;8.810;2023-03-14T08:20:36;12.20;97.00
24232;DHT22;12364;47.810;8.810;2023-03-14T08:23:03;12.30;97.20
24232;DHT22;12364;47.810;8.810;2023-03-14T08:25:30;12.30;97.20
24232;DHT22;12364;47.810;8.810;2023-03-14T08:27:57;12.30;97.10
24232;DHT22;12364;47.810;8.810;2023-03-14T08:30:24;12.60;97.30
24232;DHT22;12364;47.810;8.810;2023-03-14T08:32:51;12.50;96.70
24232;DHT22;12364;47.810;8.810;2023-03-14T08:35:18;12.50;96.50
24232;DHT22;12364;47.810;8.810;2023-03-14T08:37:45;12.50;97.00
24232;DHT22;12364;47.810;8.810;2023-03-14T08:40:13;12.60;96.80
24232;DHT22;12364;47.810;8.810;2023-03-14T08:42:40;12.60;96.80
24232;DHT22;12364;47.810;8.810;2023-03-14T08:45:08;12.80;96.50
24232;DHT22;12364;47.810;8.810;2023-03-14T08:47:35;12.80;95.80
24232;DHT22;12364;47.810;8.810;2023-03-14T08:50:03;12.80;96.20
24232;DHT22;12364;47.810;8.810;2023-03-14T08:52:30;12.90;96.20
24232;DHT22;12364;47.810;8.810;2023-03-14T08:54:58;12.90;95.30
24232;DHT22;12364;47.810;8.810;2023-03-14T08:57:25;12.90;95.60
24232;DHT22;12364;47.810;8.810;2023-03-14T08:59:54;13.10;95.00
24232;DHT22;12364;47.810;8.810;2023-03-14T09:02:22;13.10;95.00
24232;DHT22;12364;47.810;8.810;2023-03-14T09:04:49;13.20;94.60
24232;DHT22;12364;47.810;8.810;2023-03-14T09:07:17;12.80;94.90
24232;DHT22;12364;47.810;8.810;2023-03-14T09:09:45;12.90;95.00
24232;DHT22;12364;47.810;8.810;2023-03-14T09:12:12;12.90;95.70
24232;DHT22;12364;47.810;8.810;2023-03-14T09:14:39;12.80;94.90
24232;DHT22;12364;47.810;8.810;2023-03-14T09:17:06;12.80;95.30
24232;DHT22;12364;47.810;8.810;2023-03-14T09:19:33;12.90;95.00
24232;DHT22;12364;47.810;8.810;2023-03-14T09:22:00;13.00;95.50
24232;DHT22;12364;47.810;8.810;2023-03-14T09:24:27;13.10;94.90
24232;DHT22;12364;47.810;8.810;2023-03-14T09:26:55;13.00;94.70
24232;DHT22;12364;47.810;8.810;2023-03-14T09:29:22;12.90;94.70
24232;DHT22;12364;47.810;8.810;2023-03-14T09:31:49;12.80;95.10
24232;DHT22;12364;47.810;8.810;2023-03-14T09:34:16;12.90;94.80
24232;DHT22;12364;47.810;8.810;2023-03-14T09:36:43;13.00;95.10
24232;DHT22;12364;47.810;8.810;2023-03-14T09:39:11;12.80;94.90
24232;DHT22;12364;47.810;8.810;2023-03-14T09:41:39;12.80;94.80
24232;DHT22;12364;47.810;8.810;2023-03-14T09:44:14;12.70;94.70
24232;DHT22;12364;47.810;8.810;2023-03-14T09:46:44;12.60;94.50
24232;DHT22;12364;47.810;8.810;2023-03-14T09:49:13;12.60;95.00
24232;DHT22;12364;47.810;8.810;2023-03-14T09:51:41;12.50;94.60
24232;DHT22;12364;47.810;8.810;2023-03-14T09:54:16;12.40;95.20
24232;DHT22;12364;47.810;8.810;2023-03-14T09:56:46;12.60;95.00
24232;DHT22;12364;47.810;8.810;2023-03-14T09:59:13;12.60;94.30
24232;DHT22;12364;47.810;8.810;2023-03-14T10:01:40;12.50;94.60
24232;DHT22;12364;47.810;8.810;2023-03-14T10:04:10;12.40;94.40
24232;DHT22;12364;47.810;8.810;2023-03-14T10:06:40;12.40;94.50
24232;DHT22;12364;47.810;8.810;2023-03-14T10:09:10;12.40;94.80
24232;DHT22;12364;47.810;8.810;2023-03-14T10:11:41;12.30;94.40
24232;DHT22;12364;47.810;8.810;2023-03-14T10:14:09;12.30;94.70
24232;DHT22;12364;47.810;8.810;2023-03-14T10:16:38;12.30;95.10
24232;DHT22;12364;47.810;8.810;2023-03-14T10:19:09;12.40;94.80
24232;DHT22;12364;47.810;8.810;2023-03-14T10:21:40;12.30;94.90
24232;DHT22;12364;47.810;8.810;2023-03-14T10:24:08;12.30;95.20
24232;DHT22;12364;47.810;8.810;2023-03-14T10:26:35;12.40;95.20
24232;DHT22;12364;47.810;8.810;2023-03-14T10:29:12;12.30;95.20
24232;DHT22;12364;47.810;8.810;2023-03-14T10:31:46;12.50;95.30
24232;DHT22;12364;47.810;8.810;2023-03-14T10:34:17;12.40;95.40
24232;DHT22;12364;47.810;8.810;2023-03-14T10:36:44;12.40;95.40
24232;DHT22;12364;47.810;8.810;2023-03-14T10:41:48;12.10;96.20
24232;DHT22;12364;47.810;8.810;2023-03-14T10:44:17;12.00;96.10
24232;DHT22;12364;47.810;8.810;2023-03-14T10:46:45;11.90;96.60
24232;DHT22;12364;47.810;8.810;2023-03-14T10:49:23;11.80;96.60
24232;DHT22;12364;47.810;8.810;2023-03-14T10:51:51;11.70;96.70
24232;DHT22;12364;47.810;8.810;2023-03-14T10:54:19;11.60;96.80
24232;DHT22;12364;47.810;8.810;2023-03-14T10:56:55;11.60;97.00
24232;DHT22;12364;47.810;8.810;2023-03-14T10:59:22;11.40;97.00
24232;DHT22;12364;47.810;8.810;2023-03-14T11:01:58;11.30;97.30
24232;DHT22;12364;47.810;8.810;2023-03-14T11:09:29;11.20;98.60
24232;DHT22;12364;47.810;8.810;2023-03-14T11:12:09;11.30;98.60
24232;DHT22;12364;47.810;8.810;2023-03-14T11:14:41;11.30;98.40
24232;DHT22;12364;47.810;8.810;2023-03-14T11:27:32;10.60;98.70
24232;DHT22;12364;47.810;8.810;2023-03-14T11:35:03;10.10;99.20
24232;DHT22;12364;47.810;8.810;2023-03-14T11:39:59;10.10;99.60
24232;DHT22;12364;47.810;8.810;2023-03-14T11:42:29;10.20;99.90
24232;DHT22;12364;47.810;8.810;2023-03-14T11:44:58;10.20;99.90
24232;DHT22;12364;47.810;8.810;2023-03-14T11:47:29;10.00;99.90
24232;DHT22;12364;47.810;8.810;2023-03-14T11:55:26;9.90;99.90
24232;DHT22;12364;47.810;8.810;2023-03-14T11:57:56;9.80;99.90
24232;DHT22;12364;47.810;8.810;2023-03-14T12:00:25;9.80;99.90
24232;DHT22;12364;47.810;8.810;2023-03-14T12:03:02;9.80;99.90
24232;DHT22;12364;47.810;8.810;2023-03-14T12:13:11;9.70;99.90
24232;DHT22;12364;47.810;8.810;2023-03-14T12:15:39;9.70;99.90
24232;DHT22;12364;47.810;8.810;2023-03-14T12:18:17;9.60;99.90
24232;DHT22;12364;47.810;8.810;2023-03-14T12:20:56;9.50;99.90
24232;DHT22;12364;47.810;8.810;2023-03-14T12:23:23;9.50;99.90
24232;DHT22;12364;47.810;8.810;2023-03-14T12:28:37;9.40;99.90
24232;DHT22;12364;47.810;8.810;2023-03-14T12:33:57;9.40;99.90
24232;DHT22;12364;47.810;8.810;2023-03-14T12:36:51;9.50;99.90
24232;DHT22;12364;47.810;8.810;2023-03-14T12:42:04;9.60;99.90
24232;DHT22;12364;47.810;8.810;2023-03-14T12:46:59;9.80;99.90
24232;DHT22;12364;47.810;8.810;2023-03-14T12:49:30;9.70;99.90
24232;DHT22;12364;47.810;8.810;2023-03-14T12:52:01;9.70;99.90
24232;DHT22;12364;47.810;8.810;2023-03-14T12:54:36;9.30;99.90
24232;DHT22;12364;47.810;8.810;2023-03-14T12:59:55;8.50;99.90
24232;DHT22;12364;47.810;8.810;2023-03-14T13:02:23;8.20;99.30
24232;DHT22;12364;47.810;8.810;2023-03-14T13:05:00;8.10;99.80
24232;DHT22;12364;47.810;8.810;2023-03-14T13:15:31;7.60;99.90
24232;DHT22;12364;47.810;8.810;2023-03-14T13:18:01;7.70;99.90
24232;DHT22;12364;47.810;8.810;2023-03-14T13:20:30;7.90;99.80
24232;DHT22;12364;47.810;8.810;2023-03-14T13:22:58;8.00;99.90
24232;DHT22;12364;47.810;8.810;2023-03-14T13:25:28;8.10;99.60
24232;DHT22;12364;47.810;8.810;2023-03-14T13:27:55;8.30;99.60
24232;DHT22;12364;47.810;8.810;2023-03-14T13:30:24;8.30;98.80
24232;DHT22;12364;47.810;8.810;2023-03-14T13:32:54;8.30;98.90
24232;DHT22;12364;47.810;8.810;2023-03-14T13:35:28;8.40;99.40
24232;DHT22;12364;47.810;8.810;2023-03-14T13:37:57;8.60;99.00
24232;DHT22;12364;47.810;8.810;2023-03-14T13:40:37;8.80;99.10
24232;DHT22;12364;47.810;8.810;2023-03-14T13:43:05;8.90;98.10
24232;DHT22;12364;47.810;8.810;2023-03-14T13:45:41;8.90;98.00
24232;DHT22;12364;47.810;8.810;2023-03-14T13:48:09;9.00;98.40
24232;DHT22;12364;47.810;8.810;2023-03-14T13:50:36;9.10;98.10
24232;DHT22;12364;47.810;8.810;2023-03-14T13:53:03;9.10;97.80
24232;DHT22;12364;47.810;8.810;2023-03-14T13:55:30;9.20;98.30
24232;DHT22;12364;47.810;8.810;2023-03-14T13:57:57;9.40;98.30
24232;DHT22;12364;47.810;8.810;2023-03-14T14:00:25;9.60;98.40
24232;DHT22;12364;47.810;8.810;2023-03-14T14:02:56;9.70;98.20
24232;DHT22;12364;47.810;8.810;2023-03-14T14:05:28;9.90;98.10
24232;DHT22;12364;47.810;8.810;2023-03-14T14:07:55;9.90;97.90
24232;DHT22;12364;47.810;8.810;2023-03-14T14:10:23;10.00;96.50
24232;DHT22;12364;47.810;8.810;2023-03-14T14:12:55;10.00;95.30
24232;DHT22;12364;47.810;8.810;2023-03-14T14:15:31;9.90;94.70
24232;DHT22;12364;47.810;8.810;2023-03-14T14:18:01;9.80;94.40
24232;DHT22;12364;47.810;8.810;2023-03-14T14:23:02;9.70;94.00
24232;DHT22;12364;47.810;8.810;2023-03-14T14:25:30;9.60;93.80
24232;DHT22;12364;47.810;8.810;2023-03-14T14:27:57;9.40;93.60
24232;DHT22;12364;47.810;8.810;2023-03-14T14:32:51;9.50;94.00
24232;DHT22;12364;47.810;8.810;2023-03-14T14:38:12;9.50;93.20
24232;DHT22;12364;47.810;8.810;2023-03-14T14:40:43;9.50;93.70
24232;DHT22;12364;47.810;8.810;2023-03-14T14:43:11;9.50;92.40
24232;DHT22;12364;47.810;8.810;2023-03-14T14:45:42;9.50;92.50
24232;DHT22;12364;47.810;8.810;2023-03-14T14:48:10;9.40;92.80
24232;DHT22;12364;47.810;8.810;2023-03-14T14:56:03;9.50;92.20
24232;DHT22;12364;47.810;8.810;2023-03-14T14:58:34;9.50;92.40
24232;DHT22;12364;47.810;8.810;2023-03-14T15:01:07;9.50;91.90
24232;DHT22;12364;47.810;8.810;2023-03-14T15:03:37;9.50;92.20
24232;DHT22;12364;47.810;8.810;2023-03-14T15:06:04;9.50;92.70
24232;DHT22;12364;47.810;8.810;2023-03-14T15:08:31;9.60;92.50
24232;DHT22;12364;47.810;8.810;2023-03-14T15:10:58;9.70;92.10
24232;DHT22;12364;47.810;8.810;2023-03-14T15:13:25;9.50;91.60
24232;DHT22;12364;47.810;8.810;2023-03-14T15:15:52;9.50;92.30
24232;DHT22;12364;47.810;8.810;2023-03-14T15:18:23;9.50;91.20
24232;DHT22;12364;47.810;8.810;2023-03-14T15:20:51;9.50;92.00
24232;DHT22;12364;47.810;8.810;2023-03-14T15:23:19;9.50;92.00
24232;DHT22;12364;47.810;8.810;2023-03-14T15:25:46;9.60;92.10
24232;DHT22;12364;47.810;8.810;2023-03-14T15:28:25;9.70;92.00
24232;DHT22;12364;47.810;8.810;2023-03-14T15:30:53;9.60;91.30
24232;DHT22;12364;47.810;8.810;2023-03-14T15:33:21;9.50;91.20
24232;DHT22;12364;47.810;8.810;2023-03-14T15:35:48;9.40;91.70
24232;DHT22;12364;47.810;8.810;2023-03-14T15:38:16;9.50;91.90
24232;DHT22;12364;47.810;8.810;2023-03-14T15:40:43;9.70;91.60
24232;DHT22;12364;47.810;8.810;2023-03-14T15:43:10;9.60;91.10
24232;DHT22;12364;47.810;8.810;2023-03-14T15:45:37;9.60;90.90
24232;DHT22;12364;47.810;8.810;2023-03-14T15:48:04;9.50;90.70
24232;DHT22;12364;47.810;8.810;2023-03-14T15:50:31;9.50;91.20
24232;DHT22;12364;47.810;8.810;2023-03-14T15:52:58;9.60;91.10
24232;DHT22;12364;47.810;8.810;2023-03-14T15:55:25;9.70;91.40
24232;DHT22;12364;47.810;8.810;2023-03-14T15:57:52;9.80;91.50
24232;DHT22;12364;47.810;8.810;2023-03-14T16:00:20;10.00;91.00
24232;DHT22;12364;47.810;8.810;2023-03-14T16:02:51;10.10;90.70
24232;DHT22;12364;47.810;8.810;2023-03-14T16:05:18;10.10;90.90
24232;DHT22;12364;47.810;8.810;2023-03-14T16:07:47;10.20;90.30
24232;DHT22;12364;47.810;8.810;2023-03-14T16:10:15;10.20;90.50
24232;DHT22;12364;47.810;8.810;2023-03-14T16:12:42;10.20;90.00
24232;DHT22;12364;47.810;8.810;2023-03-14T16:15:09;10.30;90.30
24232;DHT22;12364;47.810;8.810;2023-03-14T16:17:36;10.40;90.00
24232;DHT22;12364;47.810;8.810;2023-03-14T16:20:04;10.40;90.10
24232;DHT22;12364;47.810;8.810;2023-03-14T16:22:31;10.40;90.00
24232;DHT22;12364;47.810;8.810;2023-03-14T16:25:02;10.40;88.70
24232;DHT22;12364;47.810;8.810;2023-03-14T16:27:29;10.30;89.40
24232;DHT22;12364;47.810;8.810;2023-03-14T16:29:57;10.20;89.20
24232;DHT22;12364;47.810;8.810;2023-03-14T16:32:26;10.20;89.90
24232;DHT22;12364;47.810;8.810;2023-03-14T16:34:53;10.30;90.00
24232;DHT22;12364;47.810;8.810;2023-03-14T16:37:22;10.40;89.80
24232;DHT22;12364;47.810;8.810;2023-03-14T16:39:49;10.40;90.30
24232;DHT22;12364;47.810;8.810;2023-03-14T16:42:36;10.50;90.80
24232;DHT22;12364;47.810;8.810;2023-03-14T16:45:16;10.70;90.50
24232;DHT22;12364;47.810;8.810;2023-03-14T16:47:43;10.70;90.80
24232;DHT22;12364;47.810;8.810;2023-03-14T16:50:10;10.60;91.10
24232;DHT22;12364;47.810;8.810;2023-03-14T16:52:37;10.50;90.90
24232;DHT22;12364;47.810;8.810;2023-03-14T16:55:04;10.50;90.90
24232;DHT22;12364;47.810;8.810;2023-03-14T16:57:33;10.30;91.20
24232;DHT22;12364;47.810;8.810;2023-03-14T17:00:00;10.30;91.50
24232;DHT22;12364;47.810;8.810;2023-03-14T17:02:27;10.40;91.60
24232;DHT22;12364;47.810;8.810;2023-03-14T17:04:54;10.40;90.70
24232;DHT22;12364;47.810;8.810;2023-03-14T17:07:21;10.30;90.20
24232;DHT22;12364;47.810;8.810;2023-03-14T17:09:48;10.10;90.30
24232;DHT22;12364;47.810;8.810;2023-03-14T17:12:15;10.00;90.60
24232;DHT22;12364;47.810;8.810;2023-03-14T17:14:42;10.10;90.70
24232;DHT22;12364;47.810;8.810;2023-03-14T17:17:09;10.30;90.70
24232;DHT22;12364;47.810;8.810;2023-03-14T17:19:36;10.20;90.80
24232;DHT22;12364;47.810;8.810;2023-03-14T17:22:03;10.20;90.40
24232;DHT22;12364;47.810;8.810;2023-03-14T17:24:47;10.20;90.50
24232;DHT22;12364;47.810;8.810;2023-03-14T17:27:14;10.00;90.40
24232;DHT22;12364;47.810;8.810;2023-03-14T17:29:46;10.10;90.80
24232;DHT22;12364;47.810;8.810;2023-03-14T17:32:15;10.10;90.90
24232;DHT22;12364;47.810;8.810;2023-03-14T17:34:43;10.10;91.10
24232;DHT22;12364;47.810;8.810;2023-03-14T17:37:10;10.10;91.60
24232;DHT22;12364;47.810;8.810;2023-03-14T17:39:37;9.90;92.60
24232;DHT22;12364;47.810;8.810;2023-03-14T17:42:05;9.50;96.00
24232;DHT22;12364;47.810;8.810;2023-03-14T17:44:32;8.80;97.20
24232;DHT22;12364;47.810;8.810;2023-03-14T17:46:59;8.50;99.50
24232;DHT22;12364;47.810;8.810;2023-03-14T17:49:26;8.30;99.70
24232;DHT22;12364;47.810;8.810;2023-03-14T17:51:53;8.20;99.30
24232;DHT22;12364;47.810;8.810;2023-03-14T17:54:20;8.10;99.20
24232;DHT22;12364;47.810;8.810;2023-03-14T17:56:47;8.10;99.30
24232;DHT22;12364;47.810;8.810;2023-03-14T17:59:14;8.20;99.50
24232;DHT22;12364;47.810;8.810;2023-03-14T18:01:42;8.30;98.90
24232;DHT22;12364;47.810;8.810;2023-03-14T18:04:09;8.40;98.80
24232;DHT22;12364;47.810;8.810;2023-03-14T18:06:36;8.50;98.30
24232;DHT22;12364;47.810;8.810;2023-03-14T18:09:03;8.50;98.00
24232;DHT22;12364;47.810;8.810;2023-03-14T18:11:31;8.60;97.80
24232;DHT22;12364;47.810;8.810;2023-03-14T18:13:58;8.60;97.50
24232;DHT22;12364;47.810;8.810;2023-03-14T18:16:27;8.60;97.10
24232;DHT22;12364;47.810;8.810;2023-03-14T18:18:54;8.60;97.10
24232;DHT22;12364;47.810;8.810;2023-03-14T18:21:23;8.70;97.50
24232;DHT22;12364;47.810;8.810;2023-03-14T18:23:50;9.00;97.80
24232;DHT22;12364;47.810;8.810;2023-03-14T18:26:17;8.80;97.90
24232;DHT22;12364;47.810;8.810;2023-03-14T18:28:44;8.80;98.10
24232;DHT22;12364;47.810;8.810;2023-03-14T18:31:12;8.80;98.10
24232;DHT22;12364;47.810;8.810;2023-03-14T18:33:44;8.80;98.10
24232;DHT22;12364;47.810;8.810;2023-03-14T18:36:11;8.90;98.20
24232;DHT22;12364;47.810;8.810;2023-03-14T18:38:38;8.90;98.00
24232;DHT22;12364;47.810;8.810;2023-03-14T18:41:09;9.00;97.50
24232;DHT22;12364;47.810;8.810;2023-03-14T18:43:37;9.00;97.10
24232;DHT22;12364;47.810;8.810;2023-03-14T18:46:04;9.00;96.40
24232;DHT22;12364;47.810;8.810;2023-03-14T18:48:31;9.00;96.40
24232;DHT22;12364;47.810;8.810;2023-03-14T18:50:58;9.00;96.10
24232;DHT22;12364;47.810;8.810;2023-03-14T18:53:26;9.00;96.10
24232;DHT22;12364;47.810;8.810;2023-03-14T18:55:58;9.00;96.00
24232;DHT22;12364;47.810;8.810;2023-03-14T18:58:25;8.90;95.90
24232;DHT22;12364;47.810;8.810;2023-03-14T19:00:56;8.90;96.10
24232;DHT22;12364;47.810;8.810;2023-03-14T19:03:24;8.90;95.80
24232;DHT22;12364;47.810;8.810;2023-03-14T19:05:54;8.90;95.80
24232;DHT22;12364;47.810;8.810;2023-03-14T19:08:21;8.90;95.60
24232;DHT22;12364;47.810;8.810;2023-03-14T19:10:52;8.80;95.80
24232;DHT22;12364;47.810;8.810;2023-03-14T19:13:21;8.80;95.80
24232;DHT22;12364;47.810;8.810;2023-03-14T19:15:48;8.90;95.40
24232;DHT22;12364;47.810;8.810;2023-03-14T19:18:15;8.90;95.40
24232;DHT22;12364;47.810;8.810;2023-03-14T19:20:42;8.90;95.00
24232;DHT22;12364;47.810;8.810;2023-03-14T19:23:10;8.90;94.70
24232;DHT22;12364;47.810;8.810;2023-03-14T19:25:39;8.80;94.70
24232;DHT22;12364;47.810;8.810;2023-03-14T19:28:10;8.80;95.00
24232;DHT22;12364;47.810;8.810;2023-03-14T19:30:37;8.90;95.00
24232;DHT22;12364;47.810;8.810;2023-03-14T19:33:04;8.90;94.60
24232;DHT22;12364;47.810;8.810;2023-03-14T19:35:31;9.00;94.80
24232;DHT22;12364;47.810;8.810;2023-03-14T19:37:58;9.00;94.80
24232;DHT22;12364;47.810;8.810;2023-03-14T19:40:25;9.10;94.80
24232;DHT22;12364;47.810;8.810;2023-03-14T19:42:52;9.20;94.60
24232;DHT22;12364;47.810;8.810;2023-03-14T19:45:19;9.30;94.80
24232;DHT22;12364;47.810;8.810;2023-03-14T19:47:46;9.40;95.10
24232;DHT22;12364;47.810;8.810;2023-03-14T19:50:14;9.40;95.30
24232;DHT22;12364;47.810;8.810;2023-03-14T19:52:40;9.40;95.30
24232;DHT22;12364;47.810;8.810;2023-03-14T19:55:10;9.40;95.50
24232;DHT22;12364;47.810;8.810;2023-03-14T19:57:38;9.40;95.50
24232;DHT22;12364;47.810;8.810;2023-03-14T20:00:05;9.40;95.40
24232;DHT22;12364;47.810;8.810;2023-03-14T20:02:40;9.30;95.40
24232;DHT22;12364;47.810;8.810;2023-03-14T20:05:08;9.40;95.50
24232;DHT22;12364;47.810;8.810;2023-03-14T20:07:35;9.40;95.80
24232;DHT22;12364;47.810;8.810;2023-03-14T20:10:02;9.40;95.80
24232;DHT22;12364;47.810;8.810;2023-03-14T20:12:30;9.40;95.50
24232;DHT22;12364;47.810;8.810;2023-03-14T20:14:57;9.30;95.50
24232;DHT22;12364;47.810;8.810;2023-03-14T20:17:24;9.30;95.60
24232;DHT22;12364;47.810;8.810;2023-03-14T20:19:53;9.20;95.50
24232;DHT22;12364;47.810;8.810;2023-03-14T20:22:20;9.00;95.70
24232;DHT22;12364;47.810;8.810;2023-03-14T20:24:47;9.00;95.80
24232;DHT22;12364;47.810;8.810;2023-03-14T20:27:14;9.00;95.70
24232;DHT22;12364;47.810;8.810;2023-03-14T20:29:41;9.00;95.70
24232;DHT22;12364;47.810;8.810;2023-03-14T20:32:09;8.90;95.70
24232;DHT22;12364;47.810;8.810;2023-03-14T20:34:36;8.90;95.70
24232;DHT22;12364;47.810;8.810;2023-03-14T20:37:04;8.90;95.80
24232;DHT22;12364;47.810;8.810;2023-03-14T20:39:31;8.90;95.80
24232;DHT22;12364;47.810;8.810;2023-03-14T20:42:01;8.90;95.60
24232;DHT22;12364;47.810;8.810;2023-03-14T20:44:28;8.90;95.60
24232;DHT22;12364;47.810;8.810;2023-03-14T20:46:55;8.90;95.70
24232;DHT22;12364;47.810;8.810;2023-03-14T20:49:23;8.70;95.10
24232;DHT22;12364;47.810;8.810;2023-03-14T20:51:50;8.50;95.60
24232;DHT22;12364;47.810;8.810;2023-03-14T20:54:17;8.50;95.70
24232;DHT22;12364;47.810;8.810;2023-03-14T20:56:44;8.50;95.60
24232;DHT22;12364;47.810;8.810;2023-03-14T20:59:12;8.40;95.40
24232;DHT22;12364;47.810;8.810;2023-03-14T21:01:39;8.30;95.50
24232;DHT22;12364;47.810;8.810;2023-03-14T21:04:06;8.10;95.80
24232;DHT22;12364;47.810;8.810;2023-03-14T21:06:33;8.10;96.30
24232;DHT22;12364;47.810;8.810;2023-03-14T21:09:00;8.10;96.30
24232;DHT22;12364;47.810;8.810;2023-03-14T21:11:31;8.10;96.30
24232;DHT22;12364;47.810;8.810;2023-03-14T21:14:02;8.00;96.60
24232;DHT22;12364;47.810;8.810;2023-03-14T21:16:29;8.10;96.70
24232;DHT22;12364;47.810;8.810;2023-03-14T21:18:56;8.30;96.60
24232;DHT22;12364;47.810;8.810;2023-03-14T21:21:23;8.30;96.30
24232;DHT22;12364;47.810;8.810;2023-03-14T21:23:50;8.10;96.50
24232;DHT22;12364;47.810;8.810;2023-03-14T21:26:20;8.10;96.90
24232;DHT22;12364;47.810;8.810;2023-03-14T21:28:47;8.10;96.80
24232;DHT22;12364;47.810;8.810;2023-03-14T21:31:14;8.30;97.30
24232;DHT22;12364;47.810;8.810;2023-03-14T21:33:41;8.40;97.40
24232;DHT22;12364;47.810;8.810;2023-03-14T21:36:08;8.60;97.20
24232;DHT22;12364;47.810;8.810;2023-03-14T21:38:35;8.70;97.10
24232;DHT22;12364;47.810;8.810;2023-03-14T21:41:02;8.60;97.00
24232;DHT22;12364;47.810;8.810;2023-03-14T21:43:30;8.60;97.00